Time;durP1;ratioP1;P1;durP2;ratioP2;P2;SDS_P1;SDS_P2;PMS_P1;PMS_P2;Temp;Humidity;BMP_temperature;BMP_pressure;BME280_temperature;BME280_humidity;BME280_pressure;Samples;Min_cycle;Max_cycle;Signal;HPM_P1;HPM_P2
2021/04/03 00:07:29;;;;;;;13.03;4.73;;;6.60;99.90;;;;;;20822943;28;20037;-77
2021/04/03 00:17:30;;;;;;;11.27;6.03;;;6.80;99.90;;;;;;20816859;28;20703;-75
2021/04/03 00:27:31;;;;;;;11.27;5.70;;;6.70;99.90;;;;;;20888511;28;20033;-77
2021/04/03 00:37:32;;;;;;;13.30;6.07;;;6.70;99.90;;;;;;20913030;28;20484;-76
2021/04/03 00:47:33;;;;;;;14.97;6.17;;;6.80;99.90;;;;;;20914332;28;20025;-76
2021/04/03 00:57:34;;;;;;;11.10;5.37;;;6.70;99.90;;;;;;20912657;28;20035;-76
2021/04/03 01:07:36;;;;;;;12.65;6.95;;;6.70;99.90;;;;;;20912561;28;20024;-76
2021/04/03 01:17:40;;;;;;;15.30;6.77;;;6.80;99.90;;;;;;20912076;28;20029;-76
2021/04/03 01:28:12;;;;;;;17.45;7.38;;;6.70;99.90;;;;;;20910367;28;20052;-76
2021/04/03 01:38:44;;;;;;;19.20;8.10;;;6.70;99.90;;;;;;20908737;28;20491;-76
2021/04/03 01:48:53;;;;;;;17.23;8.07;;;6.50;99.90;;;;;;20901712;28;20049;-76
2021/04/03 01:58:56;;;;;;;17.00;9.18;;;6.30;99.90;;;;;;20907596;28;20036;-76
2021/04/03 02:09:03;;;;;;;19.05;7.68;;;6.00;99.90;;;;;;20906668;28;20488;-77
2021/04/03 02:19:25;;;;;;;19.27;8.98;;;6.00;99.90;;;;;;20906808;28;20399;-76
2021/04/03 02:29:26;;;;;;;16.73;8.02;;;5.80;99.90;;;;;;20906805;28;20033;-75
2021/04/03 02:39:28;;;;;;;19.75;8.65;;;5.60;99.90;;;;;;20905455;28;20414;-77
2021/04/03 02:49:41;;;;;;;17.15;7.60;;;5.30;99.90;;;;;;20921762;28;20033;-76
2021/04/03 02:59:49;;;;;;;17.20;7.88;;;5.20;99.90;;;;;;20921287;28;20032;-77
2021/04/03 03:09:51;;;;;;;23.10;10.18;;;4.40;99.90;;;;;;21004616;23;20142;-76
2021/04/03 03:19:53;;;;;;;22.42;9.82;;;4.20;99.90;;;;;;20872516;28;20037;-77
2021/04/03 03:29:55;;;;;;;25.65;9.15;;;4.30;99.90;;;;;;20862444;28;20449;-76
2021/04/03 03:39:57;;;;;;;28.67;10.27;;;4.30;99.90;;;;;;20918972;28;20025;-76
2021/04/03 03:50:01;;;;;;;26.38;11.05;;;3.90;99.90;;;;;;20917866;28;20064;-76
2021/04/03 04:00:07;;;;;;;23.63;10.25;;;3.80;99.90;;;;;;20908377;28;20147;-76
2021/04/03 04:10:15;;;;;;;19.98;9.55;;;4.00;99.90;;;;;;20917529;28;20082;-75
2021/04/03 04:20:20;;;;;;;24.50;10.48;;;3.30;99.90;;;;;;20860692;28;20025;-76
2021/04/03 04:30:27;;;;;;;20.75;10.18;;;3.00;99.90;;;;;;20879735;28;20044;-75
2021/04/03 04:40:35;;;;;;;23.17;10.05;;;3.00;99.90;;;;;;20913736;28;20033;-76
2021/04/03 04:50:37;;;;;;;17.33;8.77;;;2.60;99.90;;;;;;20896998;28;20090;-75
2021/04/03 05:00:41;;;;;;;19.67;9.68;;;2.40;99.90;;;;;;20913507;28;20445;-74
2021/04/03 05:10:59;;;;;;;17.75;8.88;;;2.60;99.90;;;;;;20912510;28;20040;-75
2021/04/03 05:21:03;;;;;;;21.92;9.35;;;2.20;99.90;;;;;;20911883;28;20025;-76
2021/04/03 05:31:04;;;;;;;19.83;9.02;;;1.80;99.90;;;;;;20912449;28;20053;-75
2021/04/03 05:41:04;;;;;;;;;;;1.80;99.90;;;;;;20912612;28;20029;-75
2021/04/03 05:51:06;;;;;;;22.63;10.45;;;2.00;99.90;;;;;;20880153;28;19982;-76
2021/04/03 06:01:07;;;;;;;39.65;14.07;;;2.40;99.90;;;;;;20848255;28;20017;-76
2021/04/03 06:11:14;;;;;;;34.22;15.45;;;2.70;99.90;;;;;;20863399;28;20044;-76
2021/04/03 06:21:15;;;;;;;35.75;15.20;;;3.20;99.90;;;;;;20867483;28;20104;-75
2021/04/03 06:31:17;;;;;;;37.83;17.00;;;3.30;99.90;;;;;;20892614;28;20515;-75
2021/04/03 06:41:26;;;;;;;34.85;15.50;;;3.60;99.90;;;;;;20906070;28;20021;-77
2021/04/03 06:51:28;;;;;;;37.05;15.95;;;3.90;99.90;;;;;;20907020;28;20021;-76
2021/04/03 07:01:36;;;;;;;28.70;12.52;;;4.50;99.90;;;;;;20906932;28;20051;-76
2021/04/03 07:11:39;;;;;;;19.88;9.30;;;4.90;99.90;;;;;;20908104;28;20124;-76
2021/04/03 07:21:41;;;;;;;13.75;5.85;;;5.20;99.90;;;;;;20876234;28;20029;-77
2021/04/03 07:31:46;;;;;;;11.43;5.75;;;5.60;99.90;;;;;;20835589;28;20033;-76
2021/04/03 07:41:47;;;;;;;12.77;6.82;;;5.50;99.90;;;;;;20839914;28;20060;-76
2021/04/03 07:51:48;;;;;;;13.13;5.87;;;5.70;99.90;;;;;;20840889;28;20033;-77
2021/04/03 08:01:50;;;;;;;11.77;5.70;;;6.80;99.90;;;;;;20844085;28;20121;-77
2021/04/03 08:11:56;;;;;;;11.18;5.80;;;7.90;99.90;;;;;;20838539;28;20033;-76
2021/04/03 08:21:57;;;;;;;11.35;5.70;;;9.10;99.90;;;;;;20836941;28;20029;-78
2021/04/03 08:32:01;;;;;;;9.20;5.47;;;9.50;99.90;;;;;;20844912;28;20029;-78
2021/04/03 08:42:02;;;;;;;12.48;5.75;;;9.50;99.90;;;;;;20851203;28;20076;-77
2021/04/03 08:52:07;;;;;;;11.97;4.67;;;10.60;99.90;;;;;;20845905;28;20026;-77
2021/04/03 09:02:08;;;;;;;10.25;5.63;;;10.90;99.90;;;;;;20876034;28;20032;-77
2021/04/03 09:12:10;;;;;;;9.00;4.60;;;11.20;99.90;;;;;;20886240;28;20119;-76
2021/04/03 09:22:16;;;;;;;14.95;5.95;;;11.30;99.90;;;;;;20865239;28;20433;-77
2021/04/03 09:32:17;;;;;;;10.95;5.38;;;10.20;99.90;;;;;;20871209;28;20056;-77
2021/04/03 09:42:21;;;;;;;11.53;5.10;;;9.20;99.90;;;;;;20893789;28;20029;-78
2021/04/03 09:52:22;;;;;;;15.40;5.43;;;9.60;99.90;;;;;;20888546;28;20491;-77
2021/04/03 10:02:23;;;;;;;9.60;5.73;;;8.80;99.90;;;;;;20895720;28;20052;-77
2021/04/03 10:12:24;;;;;;;10.23;5.00;;;8.80;99.90;;;;;;20871315;28;20030;-77
2021/04/03 10:22:24;;;;;;;6.10;4.00;;;8.90;99.90;;;;;;20875116;28;20028;-78
2021/04/03 10:32:26;;;;;;;7.30;4.00;;;9.70;99.90;;;;;;20891127;28;20029;-78
2021/04/03 10:42:26;;;;;;;6.63;3.30;;;9.50;99.90;;;;;;20887711;28;20032;-79
2021/04/03 10:52:27;;;;;;;7.90;3.90;;;10.50;99.90;;;;;;20887144;28;20100;-78
2021/04/03 11:02:28;;;;;;;7.32;3.42;;;10.00;99.90;;;;;;20887927;28;20097;-78
2021/04/03 11:12:29;;;;;;;11.23;3.50;;;9.60;99.90;;;;;;20894243;28;20160;-78
2021/04/03 11:22:30;;;;;;;7.13;3.47;;;10.10;99.90;;;;;;20895232;28;20027;-78
2021/04/03 11:32:33;;;;;;;13.55;6.07;;;10.30;99.90;;;;;;20895048;28;20025;-78
2021/04/03 11:42:35;;;;;;;4.97;2.47;;;9.60;99.90;;;;;;20890847;28;20049;-78
2021/04/03 11:52:37;;;;;;;4.95;3.15;;;10.40;99.90;;;;;;20889002;28;20515;-77
2021/04/03 12:02:38;;;;;;;8.43;3.97;;;10.20;99.90;;;;;;20879635;28;20044;-78
2021/04/03 12:12:39;;;;;;;7.13;3.03;;;10.20;99.90;;;;;;20874813;28;20075;-76
2021/04/03 12:22:41;;;;;;;5.33;3.13;;;10.70;99.90;;;;;;20879686;28;20574;-76
2021/04/03 12:32:41;;;;;;;9.37;4.80;;;10.70;99.90;;;;;;20852573;28;20845;-76
2021/04/03 12:42:42;;;;;;;6.63;4.03;;;10.90;99.90;;;;;;20849637;28;20145;-76
2021/04/03 12:52:43;;;;;;;9.48;3.13;;;10.70;98.60;;;;;;20848147;28;20045;-78
2021/04/03 13:02:44;;;;;;;5.60;2.80;;;10.60;98.20;;;;;;20832417;28;20176;-77
2021/04/03 13:12:45;;;;;;;10.07;2.88;;;10.50;98.60;;;;;;20842553;28;20037;-77
2021/04/03 13:22:46;;;;;;;6.22;2.72;;;11.00;96.90;;;;;;20843555;28;20033;-76
2021/04/03 13:32:47;;;;;;;6.43;2.60;;;11.10;97.60;;;;;;20824941;28;20037;-76
2021/04/03 13:42:49;;;;;;;6.73;2.63;;;11.00;96.20;;;;;;20850607;28;20052;-76
2021/04/03 13:52:50;;;;;;;3.33;2.00;;;11.10;96.70;;;;;;20957875;23;20044;-76
2021/04/03 14:02:53;;;;;;;8.27;3.45;;;11.10;95.40;;;;;;20914797;28;20295;-75
2021/04/03 14:12:54;;;;;;;7.68;2.60;;;10.90;94.70;;;;;;20890758;28;20032;-75
2021/04/03 14:22:55;;;;;;;12.27;3.25;;;10.70;95.70;;;;;;20890531;28;20085;-75
2021/04/03 14:32:56;;;;;;;3.40;2.20;;;10.70;94.50;;;;;;20860638;28;20064;-76
2021/04/03 14:42:56;;;;;;;6.97;2.85;;;10.80;96.30;;;;;;20902890;28;20033;-77
2021/04/03 14:52:57;;;;;;;6.53;2.90;;;11.50;93.80;;;;;;20903709;28;20071;-76
2021/04/03 15:02:58;;;;;;;11.35;5.78;;;11.90;94.20;;;;;;20903283;28;20734;-76
2021/04/03 15:12:59;;;;;;;14.82;4.60;;;11.40;93.70;;;;;;20900914;28;20812;-75
2021/04/03 15:23:00;;;;;;;3.38;2.47;;;11.40;93.80;;;;;;20899826;28;20044;-76
2021/04/03 15:33:01;;;;;;;7.15;3.35;;;10.80;94.30;;;;;;20900351;28;20538;-76
2021/04/03 15:43:02;;;;;;;15.77;3.03;;;10.90;93.60;;;;;;20897852;28;20469;-77
2021/04/03 15:53:03;;;;;;;7.63;2.42;;;10.70;94.00;;;;;;20894675;28;20039;-76
2021/04/03 16:03:04;;;;;;;6.30;2.67;;;10.20;94.40;;;;;;20899998;28;20029;-76
2021/04/03 16:13:05;;;;;;;5.67;2.57;;;10.20;93.80;;;;;;20901293;28;20029;-76
2021/04/03 16:23:07;;;;;;;5.15;2.35;;;10.20;94.80;;;;;;20894809;28;20044;-76
2021/04/03 16:33:07;;;;;;;6.67;2.20;;;10.10;94.20;;;;;;20895230;28;20039;-75
2021/04/03 16:43:08;;;;;;;5.63;2.97;;;9.80;95.30;;;;;;20893175;28;20503;-75
2021/04/03 16:53:09;;;;;;;9.70;2.30;;;9.40;95.00;;;;;;20894452;28;20048;-76
2021/04/03 17:03:10;;;;;;;4.53;1.83;;;9.40;95.00;;;;;;20890621;28;20454;-76
2021/04/03 17:13:11;;;;;;;3.57;2.13;;;9.20;95.40;;;;;;20892334;28;20109;-76
2021/04/03 17:23:12;;;;;;;5.40;1.60;;;8.90;96.00;;;;;;20891698;28;20033;-76
2021/04/03 17:33:13;;;;;;;7.07;1.97;;;8.60;96.70;;;;;;20889707;28;20028;-75
2021/04/03 17:43:14;;;;;;;5.30;2.40;;;8.50;97.20;;;;;;20891729;28;20029;-77
2021/04/03 17:53:15;;;;;;;3.97;2.57;;;8.50;96.90;;;;;;20882074;28;21656;-75
2021/04/03 18:03:16;;;;;;;4.40;2.47;;;8.50;97.60;;;;;;20865491;28;20483;-76
2021/04/03 18:13:17;;;;;;;8.13;2.40;;;8.50;97.20;;;;;;20882336;28;20399;-76
2021/04/03 18:23:20;;;;;;;7.03;3.40;;;8.50;97.50;;;;;;20886902;28;20036;-76
2021/04/03 18:33:20;;;;;;;7.50;2.63;;;8.30;97.90;;;;;;20888705;28;20116;-76
2021/04/03 18:43:21;;;;;;;7.17;2.53;;;7.90;99.90;;;;;;20889154;28;20231;-76
2021/04/03 18:53:22;;;;;;;7.47;2.70;;;7.60;99.90;;;;;;20888443;28;20036;-76
2021/04/03 19:03:24;;;;;;;8.10;3.20;;;7.40;99.90;;;;;;20882887;28;20079;-75
2021/04/03 19:13:25;;;;;;;9.67;3.10;;;7.30;99.90;;;;;;20879239;28;20116;-76
2021/04/03 19:23:26;;;;;;;5.23;3.13;;;7.00;99.90;;;;;;20861973;28;20036;-77
2021/04/03 19:33:27;;;;;;;8.00;2.63;;;7.00;99.90;;;;;;20902731;28;20048;-76
2021/04/03 19:43:27;;;;;;;7.23;2.13;;;6.60;99.90;;;;;;20874106;28;20052;-77
2021/04/03 19:53:28;;;;;;;4.40;2.33;;;6.50;99.90;;;;;;20908883;28;20037;-76
2021/04/03 20:03:29;;;;;;;10.20;3.53;;;6.40;99.90;;;;;;20895686;28;20455;-76
2021/04/03 20:13:31;;;;;;;4.90;3.13;;;6.10;99.90;;;;;;20922116;28;20033;-78
2021/04/03 20:23:31;;;;;;;8.35;2.92;;;5.70;99.90;;;;;;20906944;28;20032;-76
2021/04/03 20:33:32;;;;;;;11.53;2.80;;;5.60;99.90;;;;;;20888510;28;20111;-76
2021/04/03 20:43:34;;;;;;;6.73;2.67;;;5.00;99.90;;;;;;20877945;28;20118;-76
2021/04/03 20:53:35;;;;;;;6.03;2.85;;;5.10;99.90;;;;;;21544095;23;20056;-78
2021/04/03 21:03:36;;;;;;;8.13;3.07;;;5.00;99.90;;;;;;20924981;22;20052;-80
2021/04/03 21:13:41;;;;;;;7.43;3.10;;;5.00;99.90;;;;;;20975955;28;20039;-80
2021/04/03 21:23:42;;;;;;;5.63;3.22;;;4.60;99.90;;;;;;20990348;28;20037;-76
2021/04/03 21:33:43;;;;;;;8.23;3.30;;;4.40;99.90;;;;;;20994382;28;20605;-80
2021/04/03 21:43:44;;;;;;;9.40;3.10;;;4.40;99.90;;;;;;20976904;28;20060;-77
2021/04/03 21:53:45;;;;;;;6.95;3.22;;;4.30;99.90;;;;;;20975857;28;20525;-77
2021/04/03 22:03:47;;;;;;;11.55;3.90;;;4.00;99.90;;;;;;20975607;28;20036;-80
2021/04/03 22:13:48;;;;;;;7.47;3.67;;;3.70;99.90;;;;;;20988158;28;20036;-80
2021/04/03 22:23:49;;;;;;;6.87;2.97;;;3.90;99.90;;;;;;20991402;28;20033;-78
2021/04/03 22:33:50;;;;;;;4.78;2.60;;;4.10;99.90;;;;;;20969156;28;20033;-78
2021/04/03 22:43:51;;;;;;;10.27;3.50;;;4.10;99.90;;;;;;20972516;28;20041;-79
2021/04/03 22:53:52;;;;;;;;;;;3.60;99.90;;;;;;20986325;28;20037;-77
2021/04/03 23:03:53;;;;;;;6.15;3.10;;;3.20;99.90;;;;;;20997816;28;19924;-81
2021/04/03 23:13:54;;;;;;;;;;;3.30;99.90;;;;;;21003594;28;20581;-78
2021/04/03 23:24:01;;;;;;;4.95;2.92;;;3.20;99.90;;;;;;20998373;28;20157;-79
2021/04/03 23:34:04;;;;;;;6.05;2.83;;;3.20;99.90;;;;;;21008567;28;20033;-80
2021/04/03 23:44:05;;;;;;;17.13;5.72;;;3.10;99.90;;;;;;21007191;28;20059;-80
2021/04/03 23:54:06;;;;;;;7.30;3.80;;;2.90;99.90;;;;;;20983248;28;20024;-79
